sensor_id;sensor_type;location;lat;lon;timestamp;P1;durP1;ratioP1;P2;durP2;ratioP2
69910;SDS011;63555;49.920;17.868;2024-03-17T00:00:11;7.63;;;2.77;;
69910;SDS011;63555;49.920;17.868;2024-03-17T00:05:15;8.10;;;3.03;;
69910;SDS011;63555;49.920;17.868;2024-03-17T00:10:15;6.38;;;2.70;;
69910;SDS011;63555;49.920;17.868;2024-03-17T00:15:16;8.38;;;2.92;;
69910;SDS011;63555;49.920;17.868;2024-03-17T00:20:16;8.10;;;2.90;;
69910;SDS011;63555;49.920;17.868;2024-03-17T00:25:20;7.15;;;2.88;;
69910;SDS011;63555;49.920;17.868;2024-03-17T00:30:21;6.30;;;2.60;;
69910;SDS011;63555;49.920;17.868;2024-03-17T00:35:22;9.37;;;3.17;;
69910;SDS011;63555;49.920;17.868;2024-03-17T00:40:22;7.83;;;2.80;;
69910;SDS011;63555;49.920;17.868;2024-03-17T00:45:23;9.00;;;2.63;;
69910;SDS011;63555;49.920;17.868;2024-03-17T00:50:23;9.10;;;3.10;;
69910;SDS011;63555;49.920;17.868;2024-03-17T00:55:23;7.60;;;2.67;;
69910;SDS011;63555;49.920;17.868;2024-03-17T01:00:24;9.90;;;3.17;;
69910;SDS011;63555;49.920;17.868;2024-03-17T01:05:24;6.47;;;2.30;;
69910;SDS011;63555;49.920;17.868;2024-03-17T01:10:24;6.27;;;2.20;;
69910;SDS011;63555;49.920;17.868;2024-03-17T01:15:25;7.53;;;2.47;;
69910;SDS011;63555;49.920;17.868;2024-03-17T01:20:26;6.33;;;2.00;;
69910;SDS011;63555;49.920;17.868;2024-03-17T01:25:26;6.72;;;1.80;;
69910;SDS011;63555;49.920;17.868;2024-03-17T01:30:27;9.73;;;1.52;;
69910;SDS011;63555;49.920;17.868;2024-03-17T01:35:28;8.93;;;1.63;;
69910;SDS011;63555;49.920;17.868;2024-03-17T01:40:28;5.60;;;1.40;;
69910;SDS011;63555;49.920;17.868;2024-03-17T01:45:29;5.07;;;1.50;;
69910;SDS011;63555;49.920;17.868;2024-03-17T01:50:32;6.73;;;1.40;;
69910;SDS011;63555;49.920;17.868;2024-03-17T01:55:36;5.25;;;1.17;;
69910;SDS011;63555;49.920;17.868;2024-03-17T02:00:38;7.43;;;1.50;;
69910;SDS011;63555;49.920;17.868;2024-03-17T02:05:39;4.72;;;1.10;;
69910;SDS011;63555;49.920;17.868;2024-03-17T02:10:40;5.37;;;1.17;;
69910;SDS011;63555;49.920;17.868;2024-03-17T02:15:40;16.63;;;1.50;;
69910;SDS011;63555;49.920;17.868;2024-03-17T02:20:40;7.70;;;1.40;;
69910;SDS011;63555;49.920;17.868;2024-03-17T02:25:58;7.95;;;1.52;;
69910;SDS011;63555;49.920;17.868;2024-03-17T02:30:59;7.68;;;1.20;;
69910;SDS011;63555;49.920;17.868;2024-03-17T02:35:59;7.63;;;1.20;;
69910;SDS011;63555;49.920;17.868;2024-03-17T02:41:00;4.93;;;1.20;;
69910;SDS011;63555;49.920;17.868;2024-03-17T02:46:01;5.43;;;1.00;;
69910;SDS011;63555;49.920;17.868;2024-03-17T02:51:05;3.83;;;1.27;;
69910;SDS011;63555;49.920;17.868;2024-03-17T02:56:05;5.82;;;1.50;;
69910;SDS011;63555;49.920;17.868;2024-03-17T03:01:06;12.82;;;1.30;;
69910;SDS011;63555;49.920;17.868;2024-03-17T03:06:07;6.93;;;1.10;;
69910;SDS011;63555;49.920;17.868;2024-03-17T03:11:10;9.52;;;1.70;;
69910;SDS011;63555;49.920;17.868;2024-03-17T03:16:12;7.00;;;1.30;;
69910;SDS011;63555;49.920;17.868;2024-03-17T03:21:14;6.13;;;1.20;;
69910;SDS011;63555;49.920;17.868;2024-03-17T03:26:15;7.65;;;1.23;;
69910;SDS011;63555;49.920;17.868;2024-03-17T03:31:15;12.97;;;1.30;;
69910;SDS011;63555;49.920;17.868;2024-03-17T03:36:17;12.27;;;1.17;;
69910;SDS011;63555;49.920;17.868;2024-03-17T03:41:17;7.63;;;1.40;;
69910;SDS011;63555;49.920;17.868;2024-03-17T03:46:19;12.90;;;1.17;;
69910;SDS011;63555;49.920;17.868;2024-03-17T03:51:21;7.47;;;1.30;;
69910;SDS011;63555;49.920;17.868;2024-03-17T03:56:21;5.57;;;1.43;;
69910;SDS011;63555;49.920;17.868;2024-03-17T04:01:21;3.57;;;1.20;;
69910;SDS011;63555;49.920;17.868;2024-03-17T04:06:22;10.03;;;1.40;;
69910;SDS011;63555;49.920;17.868;2024-03-17T04:11:23;3.43;;;0.87;;
69910;SDS011;63555;49.920;17.868;2024-03-17T04:16:23;6.03;;;1.03;;
69910;SDS011;63555;49.920;17.868;2024-03-17T04:21:24;2.77;;;1.03;;
69910;SDS011;63555;49.920;17.868;2024-03-17T04:26:24;9.40;;;0.90;;
69910;SDS011;63555;49.920;17.868;2024-03-17T04:31:24;3.50;;;0.77;;
69910;SDS011;63555;49.920;17.868;2024-03-17T04:36:25;5.07;;;1.13;;
69910;SDS011;63555;49.920;17.868;2024-03-17T04:41:26;9.13;;;1.33;;
69910;SDS011;63555;49.920;17.868;2024-03-17T04:46:27;6.80;;;2.10;;
69910;SDS011;63555;49.920;17.868;2024-03-17T04:51:27;5.67;;;2.00;;
69910;SDS011;63555;49.920;17.868;2024-03-17T04:56:28;5.43;;;1.90;;
69910;SDS011;63555;49.920;17.868;2024-03-17T05:01:28;10.30;;;3.37;;
69910;SDS011;63555;49.920;17.868;2024-03-17T05:06:31;5.85;;;1.83;;
69910;SDS011;63555;49.920;17.868;2024-03-17T05:11:31;8.30;;;2.03;;
69910;SDS011;63555;49.920;17.868;2024-03-17T05:16:33;4.20;;;1.67;;
69910;SDS011;63555;49.920;17.868;2024-03-17T05:21:33;12.40;;;2.38;;
69910;SDS011;63555;49.920;17.868;2024-03-17T05:26:34;4.70;;;1.73;;
69910;SDS011;63555;49.920;17.868;2024-03-17T05:31:34;7.27;;;2.00;;
69910;SDS011;63555;49.920;17.868;2024-03-17T05:36:35;3.87;;;1.73;;
69910;SDS011;63555;49.920;17.868;2024-03-17T05:41:35;5.70;;;1.67;;
69910;SDS011;63555;49.920;17.868;2024-03-17T05:46:36;5.07;;;1.87;;
69910;SDS011;63555;49.920;17.868;2024-03-17T05:51:37;12.33;;;1.97;;
69910;SDS011;63555;49.920;17.868;2024-03-17T05:56:37;13.43;;;2.70;;
69910;SDS011;63555;49.920;17.868;2024-03-17T06:01:38;5.38;;;2.08;;
69910;SDS011;63555;49.920;17.868;2024-03-17T06:06:38;11.33;;;2.50;;
69910;SDS011;63555;49.920;17.868;2024-03-17T06:11:38;6.83;;;2.80;;
69910;SDS011;63555;49.920;17.868;2024-03-17T06:16:39;9.63;;;3.53;;
69910;SDS011;63555;49.920;17.868;2024-03-17T06:21:39;7.38;;;2.80;;
69910;SDS011;63555;49.920;17.868;2024-03-17T06:26:40;4.55;;;1.52;;
69910;SDS011;63555;49.920;17.868;2024-03-17T06:31:41;4.73;;;1.27;;
69910;SDS011;63555;49.920;17.868;2024-03-17T06:36:41;5.20;;;1.23;;
69910;SDS011;63555;49.920;17.868;2024-03-17T06:41:42;6.72;;;1.50;;
69910;SDS011;63555;49.920;17.868;2024-03-17T06:46:44;8.50;;;1.40;;
69910;SDS011;63555;49.920;17.868;2024-03-17T06:51:47;4.35;;;1.20;;
69910;SDS011;63555;49.920;17.868;2024-03-17T06:56:48;6.33;;;1.47;;
69910;SDS011;63555;49.920;17.868;2024-03-17T07:01:49;3.80;;;1.10;;
69910;SDS011;63555;49.920;17.868;2024-03-17T07:06:50;11.07;;;1.42;;
69910;SDS011;63555;49.920;17.868;2024-03-17T07:11:52;4.38;;;0.90;;
69910;SDS011;63555;49.920;17.868;2024-03-17T07:16:53;4.20;;;0.90;;
69910;SDS011;63555;49.920;17.868;2024-03-17T07:21:55;4.03;;;0.95;;
69910;SDS011;63555;49.920;17.868;2024-03-17T07:26:56;3.93;;;0.80;;
69910;SDS011;63555;49.920;17.868;2024-03-17T07:31:59;4.00;;;0.80;;
69910;SDS011;63555;49.920;17.868;2024-03-17T07:36:59;3.13;;;0.50;;
69910;SDS011;63555;49.920;17.868;2024-03-17T07:42:01;2.85;;;0.60;;
69910;SDS011;63555;49.920;17.868;2024-03-17T07:47:07;3.10;;;0.63;;
69910;SDS011;63555;49.920;17.868;2024-03-17T07:52:11;3.20;;;0.60;;
69910;SDS011;63555;49.920;17.868;2024-03-17T07:57:11;3.80;;;0.60;;
69910;SDS011;63555;49.920;17.868;2024-03-17T08:02:12;2.70;;;0.50;;
69910;SDS011;63555;49.920;17.868;2024-03-17T08:07:14;3.83;;;0.52;;
69910;SDS011;63555;49.920;17.868;2024-03-17T08:12:15;3.90;;;0.60;;
69910;SDS011;63555;49.920;17.868;2024-03-17T08:17:16;1.63;;;0.40;;
69910;SDS011;63555;49.920;17.868;2024-03-17T08:22:17;2.63;;;0.52;;
69910;SDS011;63555;49.920;17.868;2024-03-17T08:27:19;3.60;;;0.50;;
69910;SDS011;63555;49.920;17.868;2024-03-17T08:32:19;2.45;;;0.40;;
69910;SDS011;63555;49.920;17.868;2024-03-17T08:37:20;2.13;;;0.60;;
69910;SDS011;63555;49.920;17.868;2024-03-17T08:42:20;2.93;;;0.70;;
69910;SDS011;63555;49.920;17.868;2024-03-17T08:47:22;1.60;;;0.30;;
69910;SDS011;63555;49.920;17.868;2024-03-17T08:52:24;1.45;;;0.47;;
69910;SDS011;63555;49.920;17.868;2024-03-17T08:57:24;1.83;;;0.60;;
69910;SDS011;63555;49.920;17.868;2024-03-17T09:02:25;2.23;;;0.63;;
69910;SDS011;63555;49.920;17.868;2024-03-17T09:07:32;2.20;;;0.70;;
69910;SDS011;63555;49.920;17.868;2024-03-17T09:12:33;3.03;;;0.60;;
69910;SDS011;63555;49.920;17.868;2024-03-17T09:17:33;1.90;;;0.60;;
69910;SDS011;63555;49.920;17.868;2024-03-17T09:22:34;2.17;;;0.70;;
69910;SDS011;63555;49.920;17.868;2024-03-17T09:27:35;3.43;;;0.70;;
69910;SDS011;63555;49.920;17.868;2024-03-17T09:32:38;4.70;;;1.02;;
69910;SDS011;63555;49.920;17.868;2024-03-17T09:37:39;2.47;;;0.93;;
69910;SDS011;63555;49.920;17.868;2024-03-17T09:42:40;2.28;;;0.93;;
69910;SDS011;63555;49.920;17.868;2024-03-17T09:47:44;3.33;;;1.00;;
69910;SDS011;63555;49.920;17.868;2024-03-17T09:52:45;4.00;;;0.80;;
69910;SDS011;63555;49.920;17.868;2024-03-17T09:57:46;2.90;;;0.95;;
69910;SDS011;63555;49.920;17.868;2024-03-17T10:02:47;2.57;;;1.03;;
69910;SDS011;63555;49.920;17.868;2024-03-17T10:07:48;2.20;;;0.90;;
69910;SDS011;63555;49.920;17.868;2024-03-17T10:12:50;4.17;;;1.10;;
69910;SDS011;63555;49.920;17.868;2024-03-17T10:17:52;3.65;;;1.10;;
69910;SDS011;63555;49.920;17.868;2024-03-17T10:23:03;2.97;;;0.80;;
69910;SDS011;63555;49.920;17.868;2024-03-17T10:28:11;3.53;;;0.83;;
69910;SDS011;63555;49.920;17.868;2024-03-17T10:33:23;2.85;;;1.00;;
69910;SDS011;63555;49.920;17.868;2024-03-17T10:38:27;3.30;;;1.20;;
69910;SDS011;63555;49.920;17.868;2024-03-17T10:43:28;3.00;;;1.27;;
69910;SDS011;63555;49.920;17.868;2024-03-17T10:48:30;3.43;;;0.80;;
69910;SDS011;63555;49.920;17.868;2024-03-17T10:53:34;2.88;;;0.90;;
69910;SDS011;63555;49.920;17.868;2024-03-17T10:58:36;3.07;;;0.93;;
69910;SDS011;63555;49.920;17.868;2024-03-17T11:03:47;4.82;;;1.40;;
69910;SDS011;63555;49.920;17.868;2024-03-17T11:08:50;3.15;;;1.17;;
69910;SDS011;63555;49.920;17.868;2024-03-17T11:13:51;2.47;;;1.10;;
69910;SDS011;63555;49.920;17.868;2024-03-17T11:19:15;3.50;;;0.88;;
69910;SDS011;63555;49.920;17.868;2024-03-17T11:24:20;2.80;;;1.30;;
69910;SDS011;63555;49.920;17.868;2024-03-17T11:29:28;4.82;;;1.40;;
69910;SDS011;63555;49.920;17.868;2024-03-17T11:44:57;4.47;;;1.50;;
69910;SDS011;63555;49.920;17.868;2024-03-17T11:50:15;3.90;;;1.80;;
69910;SDS011;63555;49.920;17.868;2024-03-17T11:55:17;4.00;;;1.20;;
69910;SDS011;63555;49.920;17.868;2024-03-17T12:00:19;5.90;;;2.00;;
69910;SDS011;63555;49.920;17.868;2024-03-17T12:05:22;5.00;;;1.95;;
69910;SDS011;63555;49.920;17.868;2024-03-17T12:10:22;5.17;;;1.60;;
69910;SDS011;63555;49.920;17.868;2024-03-17T12:15:22;6.87;;;1.57;;
69910;SDS011;63555;49.920;17.868;2024-03-17T12:20:23;3.00;;;1.17;;
69910;SDS011;63555;49.920;17.868;2024-03-17T12:25:23;3.80;;;1.60;;
69910;SDS011;63555;49.920;17.868;2024-03-17T12:30:26;3.47;;;1.30;;
69910;SDS011;63555;49.920;17.868;2024-03-17T12:35:27;3.45;;;1.33;;
69910;SDS011;63555;49.920;17.868;2024-03-17T12:40:28;3.25;;;1.30;;
69910;SDS011;63555;49.920;17.868;2024-03-17T12:45:29;4.47;;;1.40;;
69910;SDS011;63555;49.920;17.868;2024-03-17T12:50:30;5.85;;;2.42;;
69910;SDS011;63555;49.920;17.868;2024-03-17T12:55:31;4.57;;;2.00;;
69910;SDS011;63555;49.920;17.868;2024-03-17T13:00:56;6.28;;;3.35;;
69910;SDS011;63555;49.920;17.868;2024-03-17T13:05:57;4.10;;;1.40;;
69910;SDS011;63555;49.920;17.868;2024-03-17T13:11:01;3.77;;;1.33;;
69910;SDS011;63555;49.920;17.868;2024-03-17T13:16:03;7.22;;;2.97;;
69910;SDS011;63555;49.920;17.868;2024-03-17T13:21:04;4.00;;;1.60;;
69910;SDS011;63555;49.920;17.868;2024-03-17T13:26:04;3.73;;;1.30;;
69910;SDS011;63555;49.920;17.868;2024-03-17T13:31:05;4.50;;;1.23;;
69910;SDS011;63555;49.920;17.868;2024-03-17T13:36:10;4.13;;;0.98;;
69910;SDS011;63555;49.920;17.868;2024-03-17T13:41:11;3.63;;;1.37;;
69910;SDS011;63555;49.920;17.868;2024-03-17T13:46:11;10.63;;;3.73;;
69910;SDS011;63555;49.920;17.868;2024-03-17T13:51:11;4.87;;;1.33;;
69910;SDS011;63555;49.920;17.868;2024-03-17T13:56:12;4.53;;;1.40;;
69910;SDS011;63555;49.920;17.868;2024-03-17T14:01:13;3.40;;;1.33;;
69910;SDS011;63555;49.920;17.868;2024-03-17T14:06:13;3.50;;;1.17;;
69910;SDS011;63555;49.920;17.868;2024-03-17T14:11:14;4.67;;;1.30;;
69910;SDS011;63555;49.920;17.868;2024-03-17T14:16:14;5.60;;;1.50;;
69910;SDS011;63555;49.920;17.868;2024-03-17T14:21:14;5.70;;;1.43;;
69910;SDS011;63555;49.920;17.868;2024-03-17T14:26:15;3.30;;;1.20;;
69910;SDS011;63555;49.920;17.868;2024-03-17T14:31:16;5.10;;;1.37;;
69910;SDS011;63555;49.920;17.868;2024-03-17T14:36:17;4.67;;;1.50;;
69910;SDS011;63555;49.920;17.868;2024-03-17T14:41:18;5.80;;;2.50;;
69910;SDS011;63555;49.920;17.868;2024-03-17T14:46:18;3.77;;;1.17;;
69910;SDS011;63555;49.920;17.868;2024-03-17T14:51:19;3.23;;;1.20;;
69910;SDS011;63555;49.920;17.868;2024-03-17T14:56:22;7.23;;;2.73;;
69910;SDS011;63555;49.920;17.868;2024-03-17T15:01:23;10.00;;;5.23;;
69910;SDS011;63555;49.920;17.868;2024-03-17T15:06:23;21.33;;;9.73;;
69910;SDS011;63555;49.920;17.868;2024-03-17T15:11:24;10.85;;;4.60;;
69910;SDS011;63555;49.920;17.868;2024-03-17T15:16:25;7.50;;;3.83;;
69910;SDS011;63555;49.920;17.868;2024-03-17T15:21:25;7.87;;;2.90;;
69910;SDS011;63555;49.920;17.868;2024-03-17T15:26:26;15.60;;;7.97;;
69910;SDS011;63555;49.920;17.868;2024-03-17T15:31:27;12.80;;;3.53;;
69910;SDS011;63555;49.920;17.868;2024-03-17T15:36:27;9.80;;;2.77;;
69910;SDS011;63555;49.920;17.868;2024-03-17T15:41:29;8.45;;;2.47;;
69910;SDS011;63555;49.920;17.868;2024-03-17T15:46:30;5.73;;;2.10;;
69910;SDS011;63555;49.920;17.868;2024-03-17T15:51:31;9.70;;;3.67;;
69910;SDS011;63555;49.920;17.868;2024-03-17T15:56:32;8.15;;;2.40;;
69910;SDS011;63555;49.920;17.868;2024-03-17T16:01:33;7.38;;;1.95;;
69910;SDS011;63555;49.920;17.868;2024-03-17T16:06:33;4.67;;;1.87;;
69910;SDS011;63555;49.920;17.868;2024-03-17T16:11:34;5.70;;;2.20;;
69910;SDS011;63555;49.920;17.868;2024-03-17T16:16:35;6.17;;;2.10;;
69910;SDS011;63555;49.920;17.868;2024-03-17T16:21:36;4.70;;;2.42;;
69910;SDS011;63555;49.920;17.868;2024-03-17T16:26:38;5.70;;;2.60;;
69910;SDS011;63555;49.920;17.868;2024-03-17T16:31:42;7.20;;;1.98;;
69910;SDS011;63555;49.920;17.868;2024-03-17T16:36:42;4.80;;;1.60;;
69910;SDS011;63555;49.920;17.868;2024-03-17T16:41:46;4.28;;;1.92;;
69910;SDS011;63555;49.920;17.868;2024-03-17T16:51:46;5.07;;;1.70;;
69910;SDS011;63555;49.920;17.868;2024-03-17T16:56:49;5.40;;;1.70;;
69910;SDS011;63555;49.920;17.868;2024-03-17T17:01:49;5.13;;;1.83;;
69910;SDS011;63555;49.920;17.868;2024-03-17T17:06:50;9.75;;;1.80;;
69910;SDS011;63555;49.920;17.868;2024-03-17T17:11:50;8.65;;;2.00;;
69910;SDS011;63555;49.920;17.868;2024-03-17T17:16:53;4.90;;;1.80;;
69910;SDS011;63555;49.920;17.868;2024-03-17T17:21:53;6.37;;;1.83;;
69910;SDS011;63555;49.920;17.868;2024-03-17T17:26:56;6.10;;;1.80;;
69910;SDS011;63555;49.920;17.868;2024-03-17T17:31:57;6.63;;;1.80;;
69910;SDS011;63555;49.920;17.868;2024-03-17T17:36:58;6.37;;;1.63;;
69910;SDS011;63555;49.920;17.868;2024-03-17T17:41:58;8.70;;;1.90;;
69910;SDS011;63555;49.920;17.868;2024-03-17T17:47:04;10.52;;;2.20;;
69910;SDS011;63555;49.920;17.868;2024-03-17T17:52:04;4.27;;;1.60;;
69910;SDS011;63555;49.920;17.868;2024-03-17T17:57:05;8.33;;;1.70;;
69910;SDS011;63555;49.920;17.868;2024-03-17T18:02:06;9.15;;;1.80;;
69910;SDS011;63555;49.920;17.868;2024-03-17T18:07:06;5.60;;;1.70;;
69910;SDS011;63555;49.920;17.868;2024-03-17T18:12:07;5.60;;;1.73;;
69910;SDS011;63555;49.920;17.868;2024-03-17T18:17:07;5.40;;;1.67;;
69910;SDS011;63555;49.920;17.868;2024-03-17T18:22:08;4.13;;;1.80;;
69910;SDS011;63555;49.920;17.868;2024-03-17T18:27:08;7.63;;;2.07;;
69910;SDS011;63555;49.920;17.868;2024-03-17T18:32:08;7.30;;;1.90;;
69910;SDS011;63555;49.920;17.868;2024-03-17T18:37:09;9.77;;;1.90;;
69910;SDS011;63555;49.920;17.868;2024-03-17T18:42:09;12.53;;;2.03;;
69910;SDS011;63555;49.920;17.868;2024-03-17T19:35:25;8.73;;;3.03;;
69910;SDS011;63555;49.920;17.868;2024-03-17T19:40:26;8.37;;;2.80;;
69910;SDS011;63555;49.920;17.868;2024-03-17T19:45:28;11.48;;;3.00;;
69910;SDS011;63555;49.920;17.868;2024-03-17T19:50:29;10.67;;;3.07;;
69910;SDS011;63555;49.920;17.868;2024-03-17T19:55:29;10.47;;;2.90;;
69910;SDS011;63555;49.920;17.868;2024-03-17T20:00:29;8.80;;;2.93;;
69910;SDS011;63555;49.920;17.868;2024-03-17T20:05:31;8.40;;;2.67;;
69910;SDS011;63555;49.920;17.868;2024-03-17T20:10:31;15.17;;;3.27;;
69910;SDS011;63555;49.920;17.868;2024-03-17T20:15:32;8.33;;;2.20;;
69910;SDS011;63555;49.920;17.868;2024-03-17T20:20:33;9.50;;;2.83;;
69910;SDS011;63555;49.920;17.868;2024-03-17T20:25:33;14.60;;;3.00;;
69910;SDS011;63555;49.920;17.868;2024-03-17T20:30:34;8.75;;;2.38;;
69910;SDS011;63555;49.920;17.868;2024-03-17T20:35:35;8.43;;;2.77;;
69910;SDS011;63555;49.920;17.868;2024-03-17T20:40:39;10.07;;;2.50;;
69910;SDS011;63555;49.920;17.868;2024-03-17T20:45:40;8.83;;;2.83;;
69910;SDS011;63555;49.920;17.868;2024-03-17T20:50:40;12.00;;;3.00;;
69910;SDS011;63555;49.920;17.868;2024-03-17T20:55:41;7.65;;;2.67;;
69910;SDS011;63555;49.920;17.868;2024-03-17T21:00:41;11.67;;;2.20;;
69910;SDS011;63555;49.920;17.868;2024-03-17T21:05:41;9.87;;;2.43;;
69910;SDS011;63555;49.920;17.868;2024-03-17T21:10:42;9.73;;;2.33;;
69910;SDS011;63555;49.920;17.868;2024-03-17T21:15:44;6.97;;;1.85;;
69910;SDS011;63555;49.920;17.868;2024-03-17T21:20:47;4.63;;;1.45;;
69910;SDS011;63555;49.920;17.868;2024-03-17T21:25:47;9.97;;;1.83;;
69910;SDS011;63555;49.920;17.868;2024-03-17T21:30:47;4.83;;;1.87;;
69910;SDS011;63555;49.920;17.868;2024-03-17T21:35:48;6.40;;;2.00;;
69910;SDS011;63555;49.920;17.868;2024-03-17T21:40:49;11.23;;;2.17;;
69910;SDS011;63555;49.920;17.868;2024-03-17T21:45:50;9.63;;;2.40;;
69910;SDS011;63555;49.920;17.868;2024-03-17T21:50:54;17.52;;;2.80;;
69910;SDS011;63555;49.920;17.868;2024-03-17T21:55:59;10.77;;;2.58;;
69910;SDS011;63555;49.920;17.868;2024-03-17T22:01:03;7.93;;;2.60;;
69910;SDS011;63555;49.920;17.868;2024-03-17T22:06:04;13.07;;;2.80;;
69910;SDS011;63555;49.920;17.868;2024-03-17T22:11:05;16.60;;;3.35;;
69910;SDS011;63555;49.920;17.868;2024-03-17T22:16:07;14.00;;;3.00;;
69910;SDS011;63555;49.920;17.868;2024-03-17T22:21:09;7.03;;;2.53;;
69910;SDS011;63555;49.920;17.868;2024-03-17T22:26:09;7.47;;;2.67;;
69910;SDS011;63555;49.920;17.868;2024-03-17T22:31:09;7.07;;;2.53;;
69910;SDS011;63555;49.920;17.868;2024-03-17T22:36:10;10.20;;;3.00;;
69910;SDS011;63555;49.920;17.868;2024-03-17T22:41:11;6.03;;;2.20;;
69910;SDS011;63555;49.920;17.868;2024-03-17T22:46:12;9.70;;;2.80;;
69910;SDS011;63555;49.920;17.868;2024-03-17T22:51:13;7.57;;;3.22;;
69910;SDS011;63555;49.920;17.868;2024-03-17T22:56:14;8.70;;;2.80;;
69910;SDS011;63555;49.920;17.868;2024-03-17T23:01:15;7.13;;;2.67;;
69910;SDS011;63555;49.920;17.868;2024-03-17T23:06:15;12.33;;;3.07;;
69910;SDS011;63555;49.920;17.868;2024-03-17T23:11:16;8.27;;;2.50;;
69910;SDS011;63555;49.920;17.868;2024-03-17T23:16:17;7.17;;;2.17;;
69910;SDS011;63555;49.920;17.868;2024-03-17T23:21:17;11.67;;;2.90;;
69910;SDS011;63555;49.920;17.868;2024-03-17T23:26:18;9.83;;;2.40;;
69910;SDS011;63555;49.920;17.868;2024-03-17T23:31:20;8.02;;;2.10;;
69910;SDS011;63555;49.920;17.868;2024-03-17T23:36:20;7.27;;;2.63;;
69910;SDS011;63555;49.920;17.868;2024-03-17T23:41:21;7.83;;;2.50;;
69910;SDS011;63555;49.920;17.868;2024-03-17T23:46:21;8.33;;;2.80;;
69910;SDS011;63555;49.920;17.868;2024-03-17T23:51:22;7.53;;;2.90;;
69910;SDS011;63555;49.920;17.868;2024-03-17T23:56:22;9.63;;;2.93;;
